sensor_id;sensor_type;location;lat;lon;timestamp;temperature;humidity
15749;DHT22;7976;52.526;13.326;2022-10-16T00:01:27;15.80;99.90
15749;DHT22;7976;52.526;13.326;2022-10-16T00:03:56;15.90;99.90
15749;DHT22;7976;52.526;13.326;2022-10-16T00:06:27;15.90;99.90
15749;DHT22;7976;52.526;13.326;2022-10-16T00:08:55;15.90;99.90
15749;DHT22;7976;52.526;13.326;2022-10-16T00:11:24;15.90;99.90
15749;DHT22;7976;52.526;13.326;2022-10-16T00:13:56;15.90;99.90
15749;DHT22;7976;52.526;13.326;2022-10-16T00:16:25;15.90;99.90
15749;DHT22;7976;52.526;13.326;2022-10-16T00:18:53;15.90;99.90
15749;DHT22;7976;52.526;13.326;2022-10-16T00:21:23;15.90;99.90
15749;DHT22;7976;52.526;13.326;2022-10-16T00:23:53;15.90;99.90
15749;DHT22;7976;52.526;13.326;2022-10-16T00:26:23;15.90;99.90
15749;DHT22;7976;52.526;13.326;2022-10-16T00:28:50;15.90;99.90
15749;DHT22;7976;52.526;13.326;2022-10-16T00:31:20;15.90;99.90
15749;DHT22;7976;52.526;13.326;2022-10-16T00:33:49;15.90;99.90
15749;DHT22;7976;52.526;13.326;2022-10-16T00:36:19;15.90;99.90
15749;DHT22;7976;52.526;13.326;2022-10-16T00:38:49;15.90;99.90
15749;DHT22;7976;52.526;13.326;2022-10-16T00:41:20;15.90;99.90
15749;DHT22;7976;52.526;13.326;2022-10-16T00:43:49;15.90;99.90
15749;DHT22;7976;52.526;13.326;2022-10-16T00:46:20;15.90;99.90
15749;DHT22;7976;52.526;13.326;2022-10-16T00:48:52;15.90;99.90
15749;DHT22;7976;52.526;13.326;2022-10-16T00:51:26;15.90;99.90
15749;DHT22;7976;52.526;13.326;2022-10-16T00:53:56;15.90;99.90
15749;DHT22;7976;52.526;13.326;2022-10-16T00:56:25;15.90;99.90
15749;DHT22;7976;52.526;13.326;2022-10-16T00:58:52;15.90;99.90
15749;DHT22;7976;52.526;13.326;2022-10-16T01:01:19;15.90;99.90
15749;DHT22;7976;52.526;13.326;2022-10-16T01:03:46;15.90;99.90
15749;DHT22;7976;52.526;13.326;2022-10-16T01:06:22;15.90;99.90
15749;DHT22;7976;52.526;13.326;2022-10-16T01:09:02;15.90;99.90
15749;DHT22;7976;52.526;13.326;2022-10-16T01:11:44;15.90;99.90
15749;DHT22;7976;52.526;13.326;2022-10-16T01:14:22;15.90;99.90
15749;DHT22;7976;52.526;13.326;2022-10-16T01:17:00;15.90;99.90
15749;DHT22;7976;52.526;13.326;2022-10-16T01:19:57;15.90;99.90
15749;DHT22;7976;52.526;13.326;2022-10-16T01:22:37;15.90;99.90
15749;DHT22;7976;52.526;13.326;2022-10-16T01:25:15;15.90;99.90
15749;DHT22;7976;52.526;13.326;2022-10-16T01:27:50;15.90;99.90
15749;DHT22;7976;52.526;13.326;2022-10-16T01:30:21;15.90;99.90
15749;DHT22;7976;52.526;13.326;2022-10-16T01:32:56;15.90;99.90
15749;DHT22;7976;52.526;13.326;2022-10-16T01:35:30;15.90;99.90
15749;DHT22;7976;52.526;13.326;2022-10-16T01:38:04;15.90;99.90
15749;DHT22;7976;52.526;13.326;2022-10-16T01:40:36;15.90;99.90
15749;DHT22;7976;52.526;13.326;2022-10-16T01:43:14;15.90;99.90
15749;DHT22;7976;52.526;13.326;2022-10-16T01:45:45;15.90;99.90
15749;DHT22;7976;52.526;13.326;2022-10-16T01:48:14;15.90;99.90
15749;DHT22;7976;52.526;13.326;2022-10-16T01:50:47;15.90;99.90
15749;DHT22;7976;52.526;13.326;2022-10-16T01:53:18;15.90;99.90
15749;DHT22;7976;52.526;13.326;2022-10-16T01:55:49;15.90;99.90
15749;DHT22;7976;52.526;13.326;2022-10-16T01:58:22;15.90;99.90
15749;DHT22;7976;52.526;13.326;2022-10-16T02:00:51;15.90;99.90
15749;DHT22;7976;52.526;13.326;2022-10-16T02:03:22;15.90;99.90
15749;DHT22;7976;52.526;13.326;2022-10-16T02:05:51;15.90;99.90
15749;DHT22;7976;52.526;13.326;2022-10-16T02:08:21;15.90;99.90
15749;DHT22;7976;52.526;13.326;2022-10-16T02:10:51;15.90;99.90
15749;DHT22;7976;52.526;13.326;2022-10-16T02:13:24;15.90;99.90
15749;DHT22;7976;52.526;13.326;2022-10-16T02:15:54;15.90;99.90
15749;DHT22;7976;52.526;13.326;2022-10-16T02:18:21;15.90;99.90
15749;DHT22;7976;52.526;13.326;2022-10-16T02:20:51;15.90;99.90
15749;DHT22;7976;52.526;13.326;2022-10-16T02:23:26;15.90;99.90
15749;DHT22;7976;52.526;13.326;2022-10-16T02:26:03;15.90;99.90
15749;DHT22;7976;52.526;13.326;2022-10-16T02:28:39;15.90;99.90
15749;DHT22;7976;52.526;13.326;2022-10-16T02:31:12;15.90;99.90
15749;DHT22;7976;52.526;13.326;2022-10-16T02:33:45;15.90;99.90
15749;DHT22;7976;52.526;13.326;2022-10-16T02:36:13;15.90;99.90
15749;DHT22;7976;52.526;13.326;2022-10-16T02:38:40;15.90;99.90
15749;DHT22;7976;52.526;13.326;2022-10-16T02:41:08;15.90;99.90
15749;DHT22;7976;52.526;13.326;2022-10-16T02:43:36;15.90;99.90
15749;DHT22;7976;52.526;13.326;2022-10-16T02:46:03;15.90;99.90
15749;DHT22;7976;52.526;13.326;2022-10-16T02:48:29;15.90;99.90
15749;DHT22;7976;52.526;13.326;2022-10-16T02:50:56;15.90;99.90
15749;DHT22;7976;52.526;13.326;2022-10-16T02:53:23;15.90;99.90
15749;DHT22;7976;52.526;13.326;2022-10-16T02:55:50;15.90;99.90
15749;DHT22;7976;52.526;13.326;2022-10-16T02:58:16;15.90;99.90
15749;DHT22;7976;52.526;13.326;2022-10-16T03:00:45;15.80;99.90
15749;DHT22;7976;52.526;13.326;2022-10-16T03:03:12;15.80;99.90
15749;DHT22;7976;52.526;13.326;2022-10-16T03:05:38;15.80;99.90
15749;DHT22;7976;52.526;13.326;2022-10-16T03:08:05;15.80;99.90
15749;DHT22;7976;52.526;13.326;2022-10-16T03:10:32;15.80;99.90
15749;DHT22;7976;52.526;13.326;2022-10-16T03:12:59;15.80;99.90
15749;DHT22;7976;52.526;13.326;2022-10-16T03:15:25;15.80;99.90
15749;DHT22;7976;52.526;13.326;2022-10-16T03:17:55;15.80;99.90
15749;DHT22;7976;52.526;13.326;2022-10-16T03:20:23;15.70;99.90
15749;DHT22;7976;52.526;13.326;2022-10-16T03:22:50;15.80;99.90
15749;DHT22;7976;52.526;13.326;2022-10-16T03:25:17;15.70;99.90
15749;DHT22;7976;52.526;13.326;2022-10-16T03:27:44;15.70;99.90
15749;DHT22;7976;52.526;13.326;2022-10-16T03:30:12;15.70;99.90
15749;DHT22;7976;52.526;13.326;2022-10-16T03:32:39;15.70;99.90
15749;DHT22;7976;52.526;13.326;2022-10-16T03:35:07;15.70;99.90
15749;DHT22;7976;52.526;13.326;2022-10-16T03:37:34;15.70;99.90
15749;DHT22;7976;52.526;13.326;2022-10-16T03:40:02;15.70;99.90
15749;DHT22;7976;52.526;13.326;2022-10-16T03:42:29;15.60;99.90
15749;DHT22;7976;52.526;13.326;2022-10-16T03:44:56;15.60;99.90
15749;DHT22;7976;52.526;13.326;2022-10-16T03:47:23;15.60;99.90
15749;DHT22;7976;52.526;13.326;2022-10-16T03:49:50;15.60;99.90
15749;DHT22;7976;52.526;13.326;2022-10-16T03:52:18;15.60;99.90
15749;DHT22;7976;52.526;13.326;2022-10-16T03:54:44;15.60;99.90
15749;DHT22;7976;52.526;13.326;2022-10-16T03:57:11;15.60;99.90
15749;DHT22;7976;52.526;13.326;2022-10-16T03:59:38;15.60;99.90
15749;DHT22;7976;52.526;13.326;2022-10-16T04:02:05;15.60;99.90
15749;DHT22;7976;52.526;13.326;2022-10-16T04:04:31;15.60;99.90
15749;DHT22;7976;52.526;13.326;2022-10-16T04:06:58;15.60;99.90
15749;DHT22;7976;52.526;13.326;2022-10-16T04:09:26;15.60;99.90
15749;DHT22;7976;52.526;13.326;2022-10-16T04:11:53;15.60;99.90
15749;DHT22;7976;52.526;13.326;2022-10-16T04:14:20;15.60;99.90
15749;DHT22;7976;52.526;13.326;2022-10-16T04:16:47;15.60;99.90
15749;DHT22;7976;52.526;13.326;2022-10-16T04:19:13;15.60;99.90
15749;DHT22;7976;52.526;13.326;2022-10-16T04:21:40;15.60;99.90
15749;DHT22;7976;52.526;13.326;2022-10-16T04:24:07;15.60;99.90
15749;DHT22;7976;52.526;13.326;2022-10-16T04:26:35;15.60;99.90
15749;DHT22;7976;52.526;13.326;2022-10-16T04:29:02;15.50;99.90
15749;DHT22;7976;52.526;13.326;2022-10-16T04:31:29;15.60;99.90
15749;DHT22;7976;52.526;13.326;2022-10-16T04:33:56;15.50;99.90
15749;DHT22;7976;52.526;13.326;2022-10-16T04:36:22;15.50;99.90
15749;DHT22;7976;52.526;13.326;2022-10-16T04:38:49;15.50;99.90
15749;DHT22;7976;52.526;13.326;2022-10-16T04:41:16;15.50;99.90
15749;DHT22;7976;52.526;13.326;2022-10-16T04:43:44;15.50;99.90
15749;DHT22;7976;52.526;13.326;2022-10-16T04:46:11;15.50;99.90
15749;DHT22;7976;52.526;13.326;2022-10-16T04:48:37;15.50;99.90
15749;DHT22;7976;52.526;13.326;2022-10-16T04:51:04;15.50;99.90
15749;DHT22;7976;52.526;13.326;2022-10-16T04:53:31;15.50;99.90
15749;DHT22;7976;52.526;13.326;2022-10-16T04:55:58;15.50;99.90
15749;DHT22;7976;52.526;13.326;2022-10-16T04:58:25;15.40;99.90
15749;DHT22;7976;52.526;13.326;2022-10-16T05:00:53;15.40;99.90
15749;DHT22;7976;52.526;13.326;2022-10-16T05:03:20;15.40;99.90
15749;DHT22;7976;52.526;13.326;2022-10-16T05:05:47;15.40;99.90
15749;DHT22;7976;52.526;13.326;2022-10-16T05:08:14;15.40;99.90
15749;DHT22;7976;52.526;13.326;2022-10-16T05:10:43;15.40;99.90
15749;DHT22;7976;52.526;13.326;2022-10-16T05:13:10;15.40;99.90
15749;DHT22;7976;52.526;13.326;2022-10-16T05:15:37;15.40;99.90
15749;DHT22;7976;52.526;13.326;2022-10-16T05:18:05;15.40;99.90
15749;DHT22;7976;52.526;13.326;2022-10-16T05:20:32;15.40;99.90
15749;DHT22;7976;52.526;13.326;2022-10-16T05:22:59;15.40;99.90
15749;DHT22;7976;52.526;13.326;2022-10-16T05:25:25;15.40;99.90
15749;DHT22;7976;52.526;13.326;2022-10-16T05:27:52;15.40;99.90
15749;DHT22;7976;52.526;13.326;2022-10-16T05:30:19;15.40;99.90
15749;DHT22;7976;52.526;13.326;2022-10-16T05:32:47;15.40;99.90
15749;DHT22;7976;52.526;13.326;2022-10-16T05:35:16;15.40;99.90
15749;DHT22;7976;52.526;13.326;2022-10-16T05:37:44;15.40;99.90
15749;DHT22;7976;52.526;13.326;2022-10-16T05:40:12;15.40;99.90
15749;DHT22;7976;52.526;13.326;2022-10-16T05:42:39;15.40;99.90
15749;DHT22;7976;52.526;13.326;2022-10-16T05:45:08;15.40;99.90
15749;DHT22;7976;52.526;13.326;2022-10-16T05:47:36;15.50;99.90
15749;DHT22;7976;52.526;13.326;2022-10-16T05:50:04;15.50;99.90
15749;DHT22;7976;52.526;13.326;2022-10-16T05:52:32;15.50;99.90
15749;DHT22;7976;52.526;13.326;2022-10-16T05:54:59;15.50;99.90
15749;DHT22;7976;52.526;13.326;2022-10-16T05:57:25;15.50;99.90
15749;DHT22;7976;52.526;13.326;2022-10-16T05:59:52;15.60;99.90
15749;DHT22;7976;52.526;13.326;2022-10-16T06:02:19;15.60;99.90
15749;DHT22;7976;52.526;13.326;2022-10-16T06:04:46;15.60;99.90
15749;DHT22;7976;52.526;13.326;2022-10-16T06:07:12;15.60;99.90
15749;DHT22;7976;52.526;13.326;2022-10-16T06:09:40;15.50;99.90
15749;DHT22;7976;52.526;13.326;2022-10-16T06:12:07;15.60;99.90
15749;DHT22;7976;52.526;13.326;2022-10-16T06:14:34;15.60;99.90
15749;DHT22;7976;52.526;13.326;2022-10-16T06:17:00;15.60;99.90
15749;DHT22;7976;52.526;13.326;2022-10-16T06:19:27;15.60;99.90
15749;DHT22;7976;52.526;13.326;2022-10-16T06:21:54;15.60;99.90
15749;DHT22;7976;52.526;13.326;2022-10-16T06:24:23;15.60;99.90
15749;DHT22;7976;52.526;13.326;2022-10-16T06:26:51;15.70;99.90
15749;DHT22;7976;52.526;13.326;2022-10-16T06:29:18;15.70;99.90
15749;DHT22;7976;52.526;13.326;2022-10-16T06:31:44;15.70;99.90
15749;DHT22;7976;52.526;13.326;2022-10-16T06:34:11;15.70;99.90
15749;DHT22;7976;52.526;13.326;2022-10-16T06:36:38;15.70;99.90
15749;DHT22;7976;52.526;13.326;2022-10-16T06:39:06;15.70;99.90
15749;DHT22;7976;52.526;13.326;2022-10-16T06:41:33;15.70;99.90
15749;DHT22;7976;52.526;13.326;2022-10-16T06:44:13;15.80;99.90
15749;DHT22;7976;52.526;13.326;2022-10-16T06:46:40;15.80;99.90
15749;DHT22;7976;52.526;13.326;2022-10-16T06:49:07;15.80;99.90
15749;DHT22;7976;52.526;13.326;2022-10-16T06:51:33;15.80;99.90
15749;DHT22;7976;52.526;13.326;2022-10-16T06:54:02;15.90;99.90
15749;DHT22;7976;52.526;13.326;2022-10-16T06:56:29;15.90;99.90
15749;DHT22;7976;52.526;13.326;2022-10-16T06:58:57;15.90;99.90
15749;DHT22;7976;52.526;13.326;2022-10-16T07:01:26;15.90;99.90
15749;DHT22;7976;52.526;13.326;2022-10-16T07:03:53;15.90;99.90
15749;DHT22;7976;52.526;13.326;2022-10-16T07:06:23;16.00;99.90
15749;DHT22;7976;52.526;13.326;2022-10-16T07:08:52;16.10;99.90
15749;DHT22;7976;52.526;13.326;2022-10-16T07:11:20;16.20;99.90
15749;DHT22;7976;52.526;13.326;2022-10-16T07:13:50;16.20;99.90
15749;DHT22;7976;52.526;13.326;2022-10-16T07:16:18;16.30;99.90
15749;DHT22;7976;52.526;13.326;2022-10-16T07:18:48;16.40;99.90
15749;DHT22;7976;52.526;13.326;2022-10-16T07:21:18;16.40;99.90
15749;DHT22;7976;52.526;13.326;2022-10-16T07:23:50;16.40;99.90
15749;DHT22;7976;52.526;13.326;2022-10-16T07:26:17;16.40;99.90
15749;DHT22;7976;52.526;13.326;2022-10-16T07:28:44;16.50;99.90
15749;DHT22;7976;52.526;13.326;2022-10-16T07:31:13;16.50;99.90
15749;DHT22;7976;52.526;13.326;2022-10-16T07:33:41;16.50;99.90
15749;DHT22;7976;52.526;13.326;2022-10-16T07:36:11;16.60;99.90
15749;DHT22;7976;52.526;13.326;2022-10-16T07:38:38;16.60;99.90
15749;DHT22;7976;52.526;13.326;2022-10-16T07:41:06;16.60;99.90
15749;DHT22;7976;52.526;13.326;2022-10-16T07:43:35;16.60;99.90
15749;DHT22;7976;52.526;13.326;2022-10-16T07:46:02;16.60;99.90
15749;DHT22;7976;52.526;13.326;2022-10-16T07:48:31;16.70;99.90
15749;DHT22;7976;52.526;13.326;2022-10-16T07:51:00;16.70;99.90
15749;DHT22;7976;52.526;13.326;2022-10-16T07:53:30;16.70;99.90
15749;DHT22;7976;52.526;13.326;2022-10-16T07:55:58;16.70;99.90
15749;DHT22;7976;52.526;13.326;2022-10-16T07:58:25;16.70;99.90
15749;DHT22;7976;52.526;13.326;2022-10-16T08:00:53;16.70;99.90
15749;DHT22;7976;52.526;13.326;2022-10-16T08:03:19;16.70;99.90
15749;DHT22;7976;52.526;13.326;2022-10-16T08:05:46;16.70;99.90
15749;DHT22;7976;52.526;13.326;2022-10-16T08:08:14;16.70;99.90
15749;DHT22;7976;52.526;13.326;2022-10-16T08:10:43;16.70;99.90
15749;DHT22;7976;52.526;13.326;2022-10-16T08:13:10;16.70;99.90
15749;DHT22;7976;52.526;13.326;2022-10-16T08:15:38;16.70;99.90
15749;DHT22;7976;52.526;13.326;2022-10-16T08:18:05;16.80;99.90
15749;DHT22;7976;52.526;13.326;2022-10-16T08:20:33;16.80;99.90
15749;DHT22;7976;52.526;13.326;2022-10-16T08:23:00;16.80;99.90
15749;DHT22;7976;52.526;13.326;2022-10-16T08:25:27;16.90;99.90
15749;DHT22;7976;52.526;13.326;2022-10-16T08:27:56;16.90;99.90
15749;DHT22;7976;52.526;13.326;2022-10-16T08:30:23;17.00;99.90
15749;DHT22;7976;52.526;13.326;2022-10-16T08:32:50;17.00;99.90
15749;DHT22;7976;52.526;13.326;2022-10-16T08:35:17;17.00;99.90
15749;DHT22;7976;52.526;13.326;2022-10-16T08:37:44;17.00;99.90
15749;DHT22;7976;52.526;13.326;2022-10-16T08:40:17;17.00;99.90
15749;DHT22;7976;52.526;13.326;2022-10-16T08:42:59;17.00;99.90
15749;DHT22;7976;52.526;13.326;2022-10-16T08:45:44;17.00;99.90
15749;DHT22;7976;52.526;13.326;2022-10-16T08:48:23;17.00;99.90
15749;DHT22;7976;52.526;13.326;2022-10-16T08:50:56;17.10;99.90
15749;DHT22;7976;52.526;13.326;2022-10-16T08:53:29;17.10;99.90
15749;DHT22;7976;52.526;13.326;2022-10-16T08:56:01;17.10;99.90
15749;DHT22;7976;52.526;13.326;2022-10-16T08:58:30;17.10;99.90
15749;DHT22;7976;52.526;13.326;2022-10-16T09:01:00;17.10;99.90
15749;DHT22;7976;52.526;13.326;2022-10-16T09:03:48;17.20;99.90
15749;DHT22;7976;52.526;13.326;2022-10-16T09:06:30;17.20;99.90
15749;DHT22;7976;52.526;13.326;2022-10-16T09:09:21;17.30;99.90
15749;DHT22;7976;52.526;13.326;2022-10-16T09:12:09;17.40;99.90
15749;DHT22;7976;52.526;13.326;2022-10-16T09:14:52;17.40;99.90
15749;DHT22;7976;52.526;13.326;2022-10-16T09:17:34;17.50;99.90
15749;DHT22;7976;52.526;13.326;2022-10-16T09:20:18;17.60;99.90
15749;DHT22;7976;52.526;13.326;2022-10-16T09:22:54;17.60;99.90
15749;DHT22;7976;52.526;13.326;2022-10-16T09:25:27;17.60;99.90
15749;DHT22;7976;52.526;13.326;2022-10-16T09:27:55;17.60;99.90
15749;DHT22;7976;52.526;13.326;2022-10-16T09:30:27;17.70;99.90
15749;DHT22;7976;52.526;13.326;2022-10-16T09:32:58;17.70;99.90
15749;DHT22;7976;52.526;13.326;2022-10-16T09:35:31;17.70;99.90
15749;DHT22;7976;52.526;13.326;2022-10-16T09:38:02;17.70;99.90
15749;DHT22;7976;52.526;13.326;2022-10-16T09:40:31;17.80;99.90
15749;DHT22;7976;52.526;13.326;2022-10-16T09:43:16;17.80;99.90
15749;DHT22;7976;52.526;13.326;2022-10-16T09:45:57;17.80;99.90
15749;DHT22;7976;52.526;13.326;2022-10-16T09:48:28;17.80;99.90
15749;DHT22;7976;52.526;13.326;2022-10-16T09:51:01;17.80;99.90
15749;DHT22;7976;52.526;13.326;2022-10-16T09:53:41;17.80;99.90
15749;DHT22;7976;52.526;13.326;2022-10-16T09:56:11;17.80;99.90
15749;DHT22;7976;52.526;13.326;2022-10-16T09:58:50;17.80;99.90
15749;DHT22;7976;52.526;13.326;2022-10-16T10:01:21;17.80;99.90
15749;DHT22;7976;52.526;13.326;2022-10-16T10:03:56;17.90;99.90
15749;DHT22;7976;52.526;13.326;2022-10-16T10:06:29;18.00;99.90
15749;DHT22;7976;52.526;13.326;2022-10-16T10:09:03;18.10;99.90
15749;DHT22;7976;52.526;13.326;2022-10-16T10:11:48;18.20;99.90
15749;DHT22;7976;52.526;13.326;2022-10-16T10:14:20;18.20;99.90
15749;DHT22;7976;52.526;13.326;2022-10-16T10:16:52;18.20;99.90
15749;DHT22;7976;52.526;13.326;2022-10-16T10:19:28;18.20;99.90
15749;DHT22;7976;52.526;13.326;2022-10-16T10:21:55;18.20;99.90
15749;DHT22;7976;52.526;13.326;2022-10-16T10:24:24;18.20;99.90
15749;DHT22;7976;52.526;13.326;2022-10-16T10:26:59;18.20;99.90
15749;DHT22;7976;52.526;13.326;2022-10-16T10:29:44;18.20;99.90
15749;DHT22;7976;52.526;13.326;2022-10-16T10:32:27;18.10;99.90
15749;DHT22;7976;52.526;13.326;2022-10-16T10:35:12;18.10;99.90
15749;DHT22;7976;52.526;13.326;2022-10-16T10:38:00;18.10;99.90
15749;DHT22;7976;52.526;13.326;2022-10-16T10:40:42;18.10;99.90
15749;DHT22;7976;52.526;13.326;2022-10-16T10:43:29;18.10;99.90
15749;DHT22;7976;52.526;13.326;2022-10-16T10:46:14;18.20;99.90
15749;DHT22;7976;52.526;13.326;2022-10-16T10:48:58;18.30;99.90
15749;DHT22;7976;52.526;13.326;2022-10-16T10:51:42;18.50;99.90
15749;DHT22;7976;52.526;13.326;2022-10-16T10:54:22;18.60;99.90
15749;DHT22;7976;52.526;13.326;2022-10-16T10:56:58;18.70;99.90
15749;DHT22;7976;52.526;13.326;2022-10-16T10:59:41;18.80;99.90
15749;DHT22;7976;52.526;13.326;2022-10-16T11:02:23;19.00;99.90
15749;DHT22;7976;52.526;13.326;2022-10-16T11:05:16;19.20;99.90
15749;DHT22;7976;52.526;13.326;2022-10-16T11:07:57;19.40;99.90
15749;DHT22;7976;52.526;13.326;2022-10-16T11:10:30;19.50;99.90
15749;DHT22;7976;52.526;13.326;2022-10-16T11:13:14;19.60;99.90
15749;DHT22;7976;52.526;13.326;2022-10-16T11:15:51;19.60;99.90
15749;DHT22;7976;52.526;13.326;2022-10-16T11:18:26;19.50;99.90
15749;DHT22;7976;52.526;13.326;2022-10-16T11:21:05;19.50;99.90
15749;DHT22;7976;52.526;13.326;2022-10-16T11:23:40;19.40;99.90
15749;DHT22;7976;52.526;13.326;2022-10-16T11:26:17;19.40;99.90
15749;DHT22;7976;52.526;13.326;2022-10-16T11:28:49;19.30;99.90
15749;DHT22;7976;52.526;13.326;2022-10-16T11:31:24;19.20;99.90
15749;DHT22;7976;52.526;13.326;2022-10-16T11:34:02;19.10;99.90
15749;DHT22;7976;52.526;13.326;2022-10-16T11:36:42;19.00;99.90
15749;DHT22;7976;52.526;13.326;2022-10-16T11:39:20;18.90;99.90
15749;DHT22;7976;52.526;13.326;2022-10-16T11:41:50;18.80;99.90
15749;DHT22;7976;52.526;13.326;2022-10-16T11:44:40;18.70;99.90
15749;DHT22;7976;52.526;13.326;2022-10-16T11:47:26;18.70;99.90
15749;DHT22;7976;52.526;13.326;2022-10-16T11:50:02;18.70;99.90
15749;DHT22;7976;52.526;13.326;2022-10-16T11:52:42;18.60;99.90
15749;DHT22;7976;52.526;13.326;2022-10-16T11:55:17;18.60;99.90
15749;DHT22;7976;52.526;13.326;2022-10-16T11:57:50;18.60;99.90
15749;DHT22;7976;52.526;13.326;2022-10-16T12:00:22;18.50;99.90
15749;DHT22;7976;52.526;13.326;2022-10-16T12:02:58;18.40;99.90
15749;DHT22;7976;52.526;13.326;2022-10-16T12:05:49;18.40;99.90
15749;DHT22;7976;52.526;13.326;2022-10-16T12:08:23;18.30;99.90
15749;DHT22;7976;52.526;13.326;2022-10-16T12:10:51;18.40;99.90
15749;DHT22;7976;52.526;13.326;2022-10-16T12:13:29;18.40;99.90
15749;DHT22;7976;52.526;13.326;2022-10-16T12:16:05;18.40;99.90
15749;DHT22;7976;52.526;13.326;2022-10-16T12:18:49;18.50;99.90
15749;DHT22;7976;52.526;13.326;2022-10-16T12:21:36;18.60;99.90
15749;DHT22;7976;52.526;13.326;2022-10-16T12:24:05;18.70;99.90
15749;DHT22;7976;52.526;13.326;2022-10-16T12:26:36;18.80;99.90
15749;DHT22;7976;52.526;13.326;2022-10-16T12:29:14;18.80;99.90
15749;DHT22;7976;52.526;13.326;2022-10-16T12:31:54;18.80;99.90
15749;DHT22;7976;52.526;13.326;2022-10-16T12:34:25;18.80;99.90
15749;DHT22;7976;52.526;13.326;2022-10-16T12:36:56;18.80;99.90
15749;DHT22;7976;52.526;13.326;2022-10-16T12:39:37;18.80;99.90
15749;DHT22;7976;52.526;13.326;2022-10-16T12:42:17;18.90;99.90
15749;DHT22;7976;52.526;13.326;2022-10-16T12:44:48;18.90;99.90
15749;DHT22;7976;52.526;13.326;2022-10-16T12:47:21;18.90;99.90
15749;DHT22;7976;52.526;13.326;2022-10-16T12:49:52;18.90;99.90
15749;DHT22;7976;52.526;13.326;2022-10-16T12:52:28;18.90;99.90
15749;DHT22;7976;52.526;13.326;2022-10-16T12:55:05;18.90;99.90
15749;DHT22;7976;52.526;13.326;2022-10-16T12:57:50;19.20;99.90
15749;DHT22;7976;52.526;13.326;2022-10-16T13:00:44;19.50;99.90
15749;DHT22;7976;52.526;13.326;2022-10-16T13:06:34;19.60;99.90
15749;DHT22;7976;52.526;13.326;2022-10-16T13:09:30;19.50;99.90
15749;DHT22;7976;52.526;13.326;2022-10-16T13:12:15;19.30;99.90
15749;DHT22;7976;52.526;13.326;2022-10-16T13:15:27;19.20;99.90
15749;DHT22;7976;52.526;13.326;2022-10-16T13:18:13;19.20;99.90
15749;DHT22;7976;52.526;13.326;2022-10-16T13:21:03;19.10;99.90
15749;DHT22;7976;52.526;13.326;2022-10-16T13:23:49;19.00;99.90
15749;DHT22;7976;52.526;13.326;2022-10-16T13:26:30;19.10;99.90
15749;DHT22;7976;52.526;13.326;2022-10-16T13:29:06;19.00;99.90
15749;DHT22;7976;52.526;13.326;2022-10-16T13:31:33;19.00;99.90
15749;DHT22;7976;52.526;13.326;2022-10-16T13:34:01;19.10;99.90
15749;DHT22;7976;52.526;13.326;2022-10-16T13:36:30;19.10;99.90
15749;DHT22;7976;52.526;13.326;2022-10-16T13:39:10;19.20;99.90
15749;DHT22;7976;52.526;13.326;2022-10-16T13:41:40;19.20;99.90
15749;DHT22;7976;52.526;13.326;2022-10-16T13:44:14;19.30;99.90
15749;DHT22;7976;52.526;13.326;2022-10-16T13:46:44;19.30;99.90
15749;DHT22;7976;52.526;13.326;2022-10-16T13:49:14;19.30;99.90
15749;DHT22;7976;52.526;13.326;2022-10-16T13:51:54;19.20;99.90
15749;DHT22;7976;52.526;13.326;2022-10-16T13:54:22;19.20;99.90
15749;DHT22;7976;52.526;13.326;2022-10-16T13:56:50;19.20;99.90
15749;DHT22;7976;52.526;13.326;2022-10-16T13:59:25;19.20;99.90
15749;DHT22;7976;52.526;13.326;2022-10-16T14:01:56;19.10;99.90
15749;DHT22;7976;52.526;13.326;2022-10-16T14:04:25;19.10;99.90
15749;DHT22;7976;52.526;13.326;2022-10-16T14:06:57;19.00;99.90
15749;DHT22;7976;52.526;13.326;2022-10-16T14:09:26;19.00;99.90
15749;DHT22;7976;52.526;13.326;2022-10-16T14:11:56;19.00;99.90
15749;DHT22;7976;52.526;13.326;2022-10-16T14:14:34;19.00;99.90
15749;DHT22;7976;52.526;13.326;2022-10-16T14:17:13;19.00;99.90
15749;DHT22;7976;52.526;13.326;2022-10-16T14:19:45;19.00;99.90
15749;DHT22;7976;52.526;13.326;2022-10-16T14:22:29;18.90;99.90
15749;DHT22;7976;52.526;13.326;2022-10-16T14:24:58;18.90;99.90
15749;DHT22;7976;52.526;13.326;2022-10-16T14:27:31;18.90;99.90
15749;DHT22;7976;52.526;13.326;2022-10-16T14:30:14;18.90;99.90
15749;DHT22;7976;52.526;13.326;2022-10-16T14:32:54;18.90;99.90
15749;DHT22;7976;52.526;13.326;2022-10-16T14:35:25;18.90;99.90
15749;DHT22;7976;52.526;13.326;2022-10-16T14:37:54;18.90;99.90
15749;DHT22;7976;52.526;13.326;2022-10-16T14:40:24;18.90;99.90
15749;DHT22;7976;52.526;13.326;2022-10-16T14:42:53;18.90;99.90
15749;DHT22;7976;52.526;13.326;2022-10-16T14:45:24;18.80;99.90
15749;DHT22;7976;52.526;13.326;2022-10-16T14:47:56;18.80;99.90
15749;DHT22;7976;52.526;13.326;2022-10-16T14:50:25;18.80;99.90
15749;DHT22;7976;52.526;13.326;2022-10-16T14:52:52;18.80;99.90
15749;DHT22;7976;52.526;13.326;2022-10-16T14:55:19;18.80;99.90
15749;DHT22;7976;52.526;13.326;2022-10-16T14:57:46;18.80;99.90
15749;DHT22;7976;52.526;13.326;2022-10-16T15:00:17;18.70;99.90
15749;DHT22;7976;52.526;13.326;2022-10-16T15:02:48;18.70;99.90
15749;DHT22;7976;52.526;13.326;2022-10-16T15:05:19;18.70;99.90
15749;DHT22;7976;52.526;13.326;2022-10-16T15:07:49;18.70;99.90
15749;DHT22;7976;52.526;13.326;2022-10-16T15:10:16;18.70;99.90
15749;DHT22;7976;52.526;13.326;2022-10-16T15:12:44;18.70;99.90
15749;DHT22;7976;52.526;13.326;2022-10-16T15:15:24;18.60;99.90
15749;DHT22;7976;52.526;13.326;2022-10-16T15:17:58;18.60;99.90
15749;DHT22;7976;52.526;13.326;2022-10-16T15:20:27;18.60;99.90
15749;DHT22;7976;52.526;13.326;2022-10-16T15:22:55;18.60;99.90
15749;DHT22;7976;52.526;13.326;2022-10-16T15:25:31;18.50;99.90
15749;DHT22;7976;52.526;13.326;2022-10-16T15:28:01;18.50;99.90
15749;DHT22;7976;52.526;13.326;2022-10-16T15:30:29;18.40;99.90
15749;DHT22;7976;52.526;13.326;2022-10-16T15:32:57;18.40;99.90
15749;DHT22;7976;52.526;13.326;2022-10-16T15:35:24;18.40;99.90
15749;DHT22;7976;52.526;13.326;2022-10-16T15:37:51;18.30;99.90
15749;DHT22;7976;52.526;13.326;2022-10-16T15:40:20;18.30;99.90
15749;DHT22;7976;52.526;13.326;2022-10-16T15:42:48;18.20;99.90
15749;DHT22;7976;52.526;13.326;2022-10-16T15:45:15;18.20;99.90
15749;DHT22;7976;52.526;13.326;2022-10-16T15:47:43;18.10;99.90
15749;DHT22;7976;52.526;13.326;2022-10-16T15:50:12;18.10;99.90
15749;DHT22;7976;52.526;13.326;2022-10-16T15:52:40;18.10;99.90
15749;DHT22;7976;52.526;13.326;2022-10-16T15:55:09;18.00;99.90
15749;DHT22;7976;52.526;13.326;2022-10-16T15:57:38;18.00;99.90
15749;DHT22;7976;52.526;13.326;2022-10-16T16:00:08;17.90;99.90
15749;DHT22;7976;52.526;13.326;2022-10-16T16:02:37;17.90;99.90